Terminal Aerodrome Forecast
Issued by NWS

Home | Current Version | Previous Version | Text Only | Print | Product List | Glossary On
Versions: 1 2 3 4 5 6 7 8 9 10 11 12 13 14 15 16 17 18 19 20 21 22 23 24
000
FTUS41 KOKX 291120
TAFSWF
TAF
KSWF 291120Z 2912/3018 VRB03KT P6SM SCT250
     FM291500 24005KT P6SM FEW050 SCT250
     FM300000 23003KT P6SM FEW050 SCT250
     FM300600 24003KT P6SM FEW040 SCT250
     FM301100 24003KT 6SM HZ SCT030 SCT050
     FM301500 24010KT P6SM SCT030 BKN050
      AMD NOT SKED=

USA.gov is the U.S. government's official web portal to all federal, state and local government web resources and services.